sensor_id;sensor_type;location;lat;lon;timestamp;pressure;altitude;pressure_sealevel;temperature;humidity
8069;BME280;4077;43.702;24.896;2023-06-19T00:00:08;99359.56;;;21.01;100.00
8069;BME280;4077;43.702;24.896;2023-06-19T00:02:42;99357.00;;;20.71;100.00
8069;BME280;4077;43.702;24.896;2023-06-19T00:05:08;99368.22;;;20.76;100.00
8069;BME280;4077;43.702;24.896;2023-06-19T00:07:35;99355.03;;;20.78;100.00
8069;BME280;4077;43.702;24.896;2023-06-19T00:10:01;99350.94;;;20.69;100.00
8069;BME280;4077;43.702;24.896;2023-06-19T00:12:26;99350.09;;;20.69;100.00
8069;BME280;4077;43.702;24.896;2023-06-19T00:14:52;99349.97;;;20.73;100.00
8069;BME280;4077;43.702;24.896;2023-06-19T00:17:17;99333.59;;;20.65;100.00
8069;BME280;4077;43.702;24.896;2023-06-19T00:19:43;99355.34;;;20.95;100.00
8069;BME280;4077;43.702;24.896;2023-06-19T00:22:09;99331.22;;;20.58;100.00
8069;BME280;4077;43.702;24.896;2023-06-19T00:24:34;99339.91;;;20.60;100.00
8069;BME280;4077;43.702;24.896;2023-06-19T00:26:59;99342.53;;;20.60;100.00
8069;BME280;4077;43.702;24.896;2023-06-19T00:29:32;99326.44;;;20.70;100.00
8069;BME280;4077;43.702;24.896;2023-06-19T00:31:58;99336.06;;;20.70;100.00
8069;BME280;4077;43.702;24.896;2023-06-19T00:34:24;99334.47;;;20.66;100.00
8069;BME280;4077;43.702;24.896;2023-06-19T00:36:50;99342.34;;;20.64;100.00
8069;BME280;4077;43.702;24.896;2023-06-19T00:39:16;99334.91;;;20.52;100.00
8069;BME280;4077;43.702;24.896;2023-06-19T00:41:43;99338.16;;;20.59;100.00
8069;BME280;4077;43.702;24.896;2023-06-19T00:44:08;99345.41;;;20.51;100.00
8069;BME280;4077;43.702;24.896;2023-06-19T00:46:37;99320.38;;;20.40;100.00
8069;BME280;4077;43.702;24.896;2023-06-19T00:49:03;99335.78;;;20.51;100.00
8069;BME280;4077;43.702;24.896;2023-06-19T00:51:28;99348.91;;;20.51;100.00
8069;BME280;4077;43.702;24.896;2023-06-19T00:53:55;99351.72;;;20.45;100.00
8069;BME280;4077;43.702;24.896;2023-06-19T00:56:20;99341.22;;;20.45;100.00
8069;BME280;4077;43.702;24.896;2023-06-19T00:58:46;99327.38;;;20.40;100.00
8069;BME280;4077;43.702;24.896;2023-06-19T01:01:11;99328.38;;;20.36;100.00
8069;BME280;4077;43.702;24.896;2023-06-19T01:03:37;99334.19;;;20.47;100.00
8069;BME280;4077;43.702;24.896;2023-06-19T01:06:15;99346.47;;;20.45;100.00
8069;BME280;4077;43.702;24.896;2023-06-19T01:09:18;99344.72;;;20.45;100.00
8069;BME280;4077;43.702;24.896;2023-06-19T01:11:50;99341.22;;;20.45;100.00
8069;BME280;4077;43.702;24.896;2023-06-19T01:14:25;99342.00;;;20.48;100.00
8069;BME280;4077;43.702;24.896;2023-06-19T01:16:51;99344.56;;;20.50;100.00
8069;BME280;4077;43.702;24.896;2023-06-19T01:19:21;99353.25;;;20.52;100.00
8069;BME280;4077;43.702;24.896;2023-06-19T01:21:47;99301.91;;;20.15;100.00
8069;BME280;4077;43.702;24.896;2023-06-19T01:24:13;99347.63;;;20.35;100.00
8069;BME280;4077;43.702;24.896;2023-06-19T01:26:39;99346.97;;;20.28;100.00
8069;BME280;4077;43.702;24.896;2023-06-19T01:29:05;99337.88;;;20.10;100.00
8069;BME280;4077;43.702;24.896;2023-06-19T01:31:34;99345.53;;;20.18;100.00
8069;BME280;4077;43.702;24.896;2023-06-19T01:34:01;99342.03;;;20.17;100.00
8069;BME280;4077;43.702;24.896;2023-06-19T01:36:29;99340.25;;;20.19;100.00
8069;BME280;4077;43.702;24.896;2023-06-19T01:38:57;99340.91;;;20.26;100.00
8069;BME280;4077;43.702;24.896;2023-06-19T01:41:24;99327.94;;;20.21;100.00
8069;BME280;4077;43.702;24.896;2023-06-19T01:43:51;99346.84;;;20.33;100.00
8069;BME280;4077;43.702;24.896;2023-06-19T01:46:17;99328.06;;;20.18;100.00
8069;BME280;4077;43.702;24.896;2023-06-19T01:48:43;99333.09;;;20.25;100.00
8069;BME280;4077;43.702;24.896;2023-06-19T01:51:08;99347.81;;;20.29;100.00
8069;BME280;4077;43.702;24.896;2023-06-19T01:53:34;99337.47;;;20.24;100.00
8069;BME280;4077;43.702;24.896;2023-06-19T01:56:02;99337.47;;;20.24;100.00
8069;BME280;4077;43.702;24.896;2023-06-19T01:58:28;99346.22;;;20.25;100.00
8069;BME280;4077;43.702;24.896;2023-06-19T02:00:54;99352.16;;;20.30;100.00
8069;BME280;4077;43.702;24.896;2023-06-19T02:03:19;99350.38;;;20.32;100.00
8069;BME280;4077;43.702;24.896;2023-06-19T02:05:46;99349.63;;;20.27;100.00
8069;BME280;4077;43.702;24.896;2023-06-19T02:08:11;99344.63;;;20.19;100.00
8069;BME280;4077;43.702;24.896;2023-06-19T02:10:37;99335.50;;;20.03;100.00
8069;BME280;4077;43.702;24.896;2023-06-19T02:13:02;99340.09;;;19.94;100.00
8069;BME280;4077;43.702;24.896;2023-06-19T02:15:28;99344.47;;;19.94;100.00
8069;BME280;4077;43.702;24.896;2023-06-19T02:17:56;99346.88;;;20.02;100.00
8069;BME280;4077;43.702;24.896;2023-06-19T02:20:23;99333.94;;;19.97;100.00
8069;BME280;4077;43.702;24.896;2023-06-19T02:22:50;99326.94;;;19.96;100.00
8069;BME280;4077;43.702;24.896;2023-06-19T02:25:15;99341.63;;;20.02;100.00
8069;BME280;4077;43.702;24.896;2023-06-19T02:27:41;99344.41;;;19.97;100.00
8069;BME280;4077;43.702;24.896;2023-06-19T02:30:07;99351.31;;;20.00;100.00
8069;BME280;4077;43.702;24.896;2023-06-19T02:32:32;99354.00;;;19.97;100.00
8069;BME280;4077;43.702;24.896;2023-06-19T02:34:58;99354.91;;;19.97;100.00
8069;BME280;4077;43.702;24.896;2023-06-19T02:37:23;99342.94;;;19.87;100.00
8069;BME280;4077;43.702;24.896;2023-06-19T02:39:49;99350.06;;;19.82;100.00
8069;BME280;4077;43.702;24.896;2023-06-19T02:42:14;99358.94;;;19.78;100.00
8069;BME280;4077;43.702;24.896;2023-06-19T02:44:40;99350.38;;;19.71;100.00
8069;BME280;4077;43.702;24.896;2023-06-19T02:47:05;99352.28;;;19.66;100.00
8069;BME280;4077;43.702;24.896;2023-06-19T02:49:31;99343.69;;;19.61;100.00
8069;BME280;4077;43.702;24.896;2023-06-19T02:51:57;99358.16;;;19.74;100.00
8069;BME280;4077;43.702;24.896;2023-06-19T02:54:22;99345.38;;;19.62;100.00
8069;BME280;4077;43.702;24.896;2023-06-19T02:56:48;99369.31;;;19.81;100.00
8069;BME280;4077;43.702;24.896;2023-06-19T02:59:13;99349.56;;;19.69;100.00
8069;BME280;4077;43.702;24.896;2023-06-19T03:01:38;99371.53;;;19.94;100.00
8069;BME280;4077;43.702;24.896;2023-06-19T03:04:04;99379.28;;;19.99;100.00
8069;BME280;4077;43.702;24.896;2023-06-19T03:06:29;99381.94;;;19.98;100.00
8069;BME280;4077;43.702;24.896;2023-06-19T03:08:55;99370.50;;;19.69;100.00
8069;BME280;4077;43.702;24.896;2023-06-19T03:11:21;99372.19;;;19.72;100.00
8069;BME280;4077;43.702;24.896;2023-06-19T03:13:51;99377.56;;;19.67;100.00
8069;BME280;4077;43.702;24.896;2023-06-19T03:16:17;99385.47;;;19.65;100.00
8069;BME280;4077;43.702;24.896;2023-06-19T03:18:43;99379.41;;;19.63;100.00
8069;BME280;4077;43.702;24.896;2023-06-19T03:21:14;99388.31;;;19.55;100.00
8069;BME280;4077;43.702;24.896;2023-06-19T03:23:39;99383.09;;;19.55;100.00
8069;BME280;4077;43.702;24.896;2023-06-19T03:26:09;99384.94;;;19.51;100.00
8069;BME280;4077;43.702;24.896;2023-06-19T03:28:35;99374.63;;;19.45;100.00
8069;BME280;4077;43.702;24.896;2023-06-19T03:31:01;99385.78;;;19.52;100.00
8069;BME280;4077;43.702;24.896;2023-06-19T03:33:26;99382.31;;;19.51;100.00
8069;BME280;4077;43.702;24.896;2023-06-19T03:35:52;99388.31;;;19.55;100.00
8069;BME280;4077;43.702;24.896;2023-06-19T03:38:17;99391.66;;;19.61;100.00
8069;BME280;4077;43.702;24.896;2023-06-19T03:40:43;99392.41;;;19.66;100.00
8069;BME280;4077;43.702;24.896;2023-06-19T03:43:08;99392.34;;;19.68;100.00
8069;BME280;4077;43.702;24.896;2023-06-19T03:45:34;99404.44;;;19.74;100.00
8069;BME280;4077;43.702;24.896;2023-06-19T03:47:59;99395.66;;;19.75;100.00
8069;BME280;4077;43.702;24.896;2023-06-19T03:50:25;99392.16;;;19.76;100.00
8069;BME280;4077;43.702;24.896;2023-06-19T03:52:50;99397.38;;;19.76;100.00
8069;BME280;4077;43.702;24.896;2023-06-19T03:55:15;99393.00;;;19.76;100.00
8069;BME280;4077;43.702;24.896;2023-06-19T03:57:41;99399.09;;;19.78;100.00
8069;BME280;4077;43.702;24.896;2023-06-19T04:00:07;99399.03;;;19.80;100.00
8069;BME280;4077;43.702;24.896;2023-06-19T04:02:38;99394.75;;;19.77;100.00
8069;BME280;4077;43.702;24.896;2023-06-19T04:05:05;99402.50;;;19.80;100.00
8069;BME280;4077;43.702;24.896;2023-06-19T04:07:31;99396.47;;;19.78;100.00
8069;BME280;4077;43.702;24.896;2023-06-19T04:10:02;99394.75;;;19.77;100.00
8069;BME280;4077;43.702;24.896;2023-06-19T04:12:27;99405.91;;;19.84;100.00
8069;BME280;4077;43.702;24.896;2023-06-19T04:14:53;99405.91;;;19.84;100.00
8069;BME280;4077;43.702;24.896;2023-06-19T04:17:18;99404.00;;;19.90;100.00
8069;BME280;4077;43.702;24.896;2023-06-19T04:19:44;99401.31;;;19.92;100.00
8069;BME280;4077;43.702;24.896;2023-06-19T04:22:09;99378.06;;;19.80;100.00
8069;BME280;4077;43.702;24.896;2023-06-19T04:24:39;99401.16;;;19.98;100.00
8069;BME280;4077;43.702;24.896;2023-06-19T04:27:04;99402.97;;;19.94;100.00
8069;BME280;4077;43.702;24.896;2023-06-19T04:29:30;99399.59;;;19.91;100.00
8069;BME280;4077;43.702;24.896;2023-06-19T04:31:58;99396.41;;;19.80;100.00
8069;BME280;4077;43.702;24.896;2023-06-19T04:34:24;99403.47;;;19.78;100.00
8069;BME280;4077;43.702;24.896;2023-06-19T04:36:50;99393.00;;;19.78;100.00
8069;BME280;4077;43.702;24.896;2023-06-19T04:39:16;99398.28;;;19.75;100.00
8069;BME280;4077;43.702;24.896;2023-06-19T04:41:45;99399.94;;;19.79;100.00
8069;BME280;4077;43.702;24.896;2023-06-19T04:44:10;99394.69;;;19.79;100.00
8069;BME280;4077;43.702;24.896;2023-06-19T04:46:40;99399.13;;;19.77;100.00
8069;BME280;4077;43.702;24.896;2023-06-19T04:49:05;99383.47;;;19.74;100.00
8069;BME280;4077;43.702;24.896;2023-06-19T04:51:31;99399.44;;;19.97;100.00
8069;BME280;4077;43.702;24.896;2023-06-19T04:54:00;99392.38;;;19.99;100.00
8069;BME280;4077;43.702;24.896;2023-06-19T04:56:25;99385.31;;;20.01;100.00
8069;BME280;4077;43.702;24.896;2023-06-19T04:58:51;99382.44;;;20.10;100.00
8069;BME280;4077;43.702;24.896;2023-06-19T05:01:17;99383.72;;;20.27;100.00
8069;BME280;4077;43.702;24.896;2023-06-19T05:03:44;99397.97;;;20.47;100.00
8069;BME280;4077;43.702;24.896;2023-06-19T05:06:11;99396.75;;;20.59;100.00
8069;BME280;4077;43.702;24.896;2023-06-19T05:08:36;99395.44;;;20.72;100.00
8069;BME280;4077;43.702;24.896;2023-06-19T05:11:02;99402.00;;;20.87;100.00
8069;BME280;4077;43.702;24.896;2023-06-19T05:13:27;99407.69;;;21.00;100.00
8069;BME280;4077;43.702;24.896;2023-06-19T05:15:53;99400.72;;;20.99;100.00
8069;BME280;4077;43.702;24.896;2023-06-19T05:18:18;99408.44;;;21.03;100.00
8069;BME280;4077;43.702;24.896;2023-06-19T05:20:44;99415.75;;;21.20;100.00
8069;BME280;4077;43.702;24.896;2023-06-19T05:23:10;99408.41;;;21.32;100.00
8069;BME280;4077;43.702;24.896;2023-06-19T05:25:35;99409.72;;;21.45;100.00
8069;BME280;4077;43.702;24.896;2023-06-19T05:28:01;99411.81;;;21.60;100.00
8069;BME280;4077;43.702;24.896;2023-06-19T05:30:27;99393.34;;;21.63;100.00
8069;BME280;4077;43.702;24.896;2023-06-19T05:32:52;99396.75;;;21.65;100.00
8069;BME280;4077;43.702;24.896;2023-06-19T05:35:17;99412.41;;;21.68;100.00
8069;BME280;4077;43.702;24.896;2023-06-19T05:37:43;99400.63;;;21.55;100.00
8069;BME280;4077;43.702;24.896;2023-06-19T05:40:09;99416.44;;;21.78;100.00
8069;BME280;4077;43.702;24.896;2023-06-19T05:42:36;99425.50;;;21.70;100.00
8069;BME280;4077;43.702;24.896;2023-06-19T05:45:02;99425.81;;;21.61;100.00
8069;BME280;4077;43.702;24.896;2023-06-19T05:47:28;99432.88;;;21.58;100.00
8069;BME280;4077;43.702;24.896;2023-06-19T05:49:56;99426.69;;;21.08;100.00
8069;BME280;4077;43.702;24.896;2023-06-19T05:52:21;99409.66;;;20.93;100.00
8069;BME280;4077;43.702;24.896;2023-06-19T05:54:47;99435.59;;;21.02;100.00
8069;BME280;4077;43.702;24.896;2023-06-19T05:57:13;99441.34;;;20.87;100.00
8069;BME280;4077;43.702;24.896;2023-06-19T05:59:40;99427.75;;;20.74;100.00
8069;BME280;4077;43.702;24.896;2023-06-19T06:02:06;99434.41;;;20.85;100.00
8069;BME280;4077;43.702;24.896;2023-06-19T06:04:32;99411.72;;;20.84;100.00
8069;BME280;4077;43.702;24.896;2023-06-19T06:06:58;99437.84;;;21.15;100.00
8069;BME280;4077;43.702;24.896;2023-06-19T06:09:24;99436.25;;;21.37;100.00
8069;BME280;4077;43.702;24.896;2023-06-19T06:11:49;99434.69;;;21.32;100.00
8069;BME280;4077;43.702;24.896;2023-06-19T06:14:14;99436.66;;;21.23;100.00
8069;BME280;4077;43.702;24.896;2023-06-19T06:16:40;99445.97;;;21.34;100.00
8069;BME280;4077;43.702;24.896;2023-06-19T06:19:06;99438.66;;;21.43;100.00
8069;BME280;4077;43.702;24.896;2023-06-19T06:21:31;99442.75;;;21.52;100.00
8069;BME280;4077;43.702;24.896;2023-06-19T06:23:57;99440.13;;;21.52;100.00
8069;BME280;4077;43.702;24.896;2023-06-19T06:26:22;99448.94;;;21.76;100.00
8069;BME280;4077;43.702;24.896;2023-06-19T06:28:48;99449.09;;;21.96;100.00
8069;BME280;4077;43.702;24.896;2023-06-19T06:31:13;99446.91;;;22.07;100.00
8069;BME280;4077;43.702;24.896;2023-06-19T06:33:39;99435.25;;;22.16;100.00
8069;BME280;4077;43.702;24.896;2023-06-19T06:36:15;99444.16;;;22.59;100.00
8069;BME280;4077;43.702;24.896;2023-06-19T06:38:40;99463.34;;;22.86;100.00
8069;BME280;4077;43.702;24.896;2023-06-19T06:41:06;99460.88;;;23.03;100.00
8069;BME280;4077;43.702;24.896;2023-06-19T06:43:31;99464.66;;;23.18;100.00
8069;BME280;4077;43.702;24.896;2023-06-19T06:45:57;99468.78;;;23.45;100.00
8069;BME280;4077;43.702;24.896;2023-06-19T06:48:22;99428.28;;;23.28;100.00
8069;BME280;4077;43.702;24.896;2023-06-19T06:50:48;99472.69;;;23.79;100.00
8069;BME280;4077;43.702;24.896;2023-06-19T06:53:13;99478.22;;;23.73;100.00
8069;BME280;4077;43.702;24.896;2023-06-19T06:55:38;99480.59;;;23.79;100.00
8069;BME280;4077;43.702;24.896;2023-06-19T06:58:04;99485.59;;;24.06;100.00
8069;BME280;4077;43.702;24.896;2023-06-19T07:00:30;99483.69;;;24.09;100.00
8069;BME280;4077;43.702;24.896;2023-06-19T07:02:56;99485.97;;;24.17;100.00
8069;BME280;4077;43.702;24.896;2023-06-19T07:05:22;99488.66;;;24.15;100.00
8069;BME280;4077;43.702;24.896;2023-06-19T07:07:47;99478.69;;;23.83;100.00
8069;BME280;4077;43.702;24.896;2023-06-19T07:10:13;99481.91;;;23.89;100.00
8069;BME280;4077;43.702;24.896;2023-06-19T07:12:46;99485.34;;;23.71;100.00
8069;BME280;4077;43.702;24.896;2023-06-19T07:15:11;99484.56;;;23.25;100.00
8069;BME280;4077;43.702;24.896;2023-06-19T07:17:37;99475.56;;;23.09;100.00
8069;BME280;4077;43.702;24.896;2023-06-19T07:20:03;99482.16;;;23.19;100.00
8069;BME280;4077;43.702;24.896;2023-06-19T07:22:28;99483.78;;;23.23;100.00
8069;BME280;4077;43.702;24.896;2023-06-19T07:24:54;99483.03;;;22.98;100.00
8069;BME280;4077;43.702;24.896;2023-06-19T07:27:19;99488.50;;;23.15;100.00
8069;BME280;4077;43.702;24.896;2023-06-19T07:29:45;99488.84;;;23.50;100.00
8069;BME280;4077;43.702;24.896;2023-06-19T07:32:10;99492.19;;;24.16;100.00
8069;BME280;4077;43.702;24.896;2023-06-19T07:35:13;99500.03;;;24.94;100.00
8069;BME280;4077;43.702;24.896;2023-06-19T07:38:18;99511.84;;;25.59;100.00
8069;BME280;4077;43.702;24.896;2023-06-19T07:40:47;99495.69;;;25.48;100.00
8069;BME280;4077;43.702;24.896;2023-06-19T07:43:13;99487.16;;;25.60;100.00
8069;BME280;4077;43.702;24.896;2023-06-19T07:45:38;99511.59;;;25.83;99.98
8069;BME280;4077;43.702;24.896;2023-06-19T07:48:04;99517.03;;;25.97;99.83
8069;BME280;4077;43.702;24.896;2023-06-19T07:50:29;99490.53;;;25.81;98.92
8069;BME280;4077;43.702;24.896;2023-06-19T07:52:54;99506.06;;;25.70;95.99
8069;BME280;4077;43.702;24.896;2023-06-19T07:55:20;99504.94;;;25.40;96.83
8069;BME280;4077;43.702;24.896;2023-06-19T08:01:04;99501.28;;;25.59;95.31
8069;BME280;4077;43.702;24.896;2023-06-19T08:03:30;99509.28;;;25.77;94.00
8069;BME280;4077;43.702;24.896;2023-06-19T08:05:56;99513.38;;;26.17;92.90
8069;BME280;4077;43.702;24.896;2023-06-19T08:08:21;99511.44;;;26.03;90.81
8069;BME280;4077;43.702;24.896;2023-06-19T08:10:47;99516.97;;;26.16;94.24
8069;BME280;4077;43.702;24.896;2023-06-19T08:13:12;99519.81;;;26.46;93.54
8069;BME280;4077;43.702;24.896;2023-06-19T08:15:38;99506.75;;;26.43;94.12
8069;BME280;4077;43.702;24.896;2023-06-19T08:18:04;99510.25;;;26.43;94.13
8069;BME280;4077;43.702;24.896;2023-06-19T08:20:30;99506.75;;;26.43;93.96
8069;BME280;4077;43.702;24.896;2023-06-19T08:22:55;99513.59;;;26.30;96.13
8069;BME280;4077;43.702;24.896;2023-06-19T08:25:22;99516.56;;;26.24;96.99
8069;BME280;4077;43.702;24.896;2023-06-19T08:27:47;99513.97;;;26.39;97.77
8069;BME280;4077;43.702;24.896;2023-06-19T08:30:13;99517.31;;;26.26;100.00
8069;BME280;4077;43.702;24.896;2023-06-19T08:32:38;99507.50;;;26.45;95.71
8069;BME280;4077;43.702;24.896;2023-06-19T08:35:04;99522.75;;;26.73;96.79
8069;BME280;4077;43.702;24.896;2023-06-19T08:37:30;99524.22;;;26.94;94.48
8069;BME280;4077;43.702;24.896;2023-06-19T08:39:55;99501.25;;;26.79;90.85
8069;BME280;4077;43.702;24.896;2023-06-19T08:42:22;99521.34;;;26.99;92.76
8069;BME280;4077;43.702;24.896;2023-06-19T08:44:48;99527.41;;;27.33;90.84
8069;BME280;4077;43.702;24.896;2023-06-19T08:47:14;99531.00;;;27.16;83.72
8069;BME280;4077;43.702;24.896;2023-06-19T08:49:39;99531.84;;;27.48;86.58
8069;BME280;4077;43.702;24.896;2023-06-19T08:52:05;99528.97;;;27.67;84.45
8069;BME280;4077;43.702;24.896;2023-06-19T08:54:32;99527.03;;;27.54;82.68
8069;BME280;4077;43.702;24.896;2023-06-19T08:57:01;99524.84;;;27.47;82.93
8069;BME280;4077;43.702;24.896;2023-06-19T08:59:27;99524.31;;;27.24;84.07
8069;BME280;4077;43.702;24.896;2023-06-19T09:01:54;99518.53;;;27.34;84.27
8069;BME280;4077;43.702;24.896;2023-06-19T09:04:25;99507.75;;;27.21;85.53
8069;BME280;4077;43.702;24.896;2023-06-19T09:06:56;99520.88;;;27.54;85.15
8069;BME280;4077;43.702;24.896;2023-06-19T09:09:24;99521.88;;;27.67;84.22
8069;BME280;4077;43.702;24.896;2023-06-19T09:12:05;99517.00;;;27.75;80.43
8069;BME280;4077;43.702;24.896;2023-06-19T09:14:42;99510.78;;;27.61;81.08
8069;BME280;4077;43.702;24.896;2023-06-19T09:17:19;99521.19;;;27.64;84.39
8069;BME280;4077;43.702;24.896;2023-06-19T09:19:53;99513.22;;;27.64;83.88
8069;BME280;4077;43.702;24.896;2023-06-19T09:22:22;99511.66;;;27.45;84.84
8069;BME280;4077;43.702;24.896;2023-06-19T09:24:48;99500.22;;;26.97;85.22
8069;BME280;4077;43.702;24.896;2023-06-19T09:27:16;99506.88;;;26.73;88.52
8069;BME280;4077;43.702;24.896;2023-06-19T09:29:48;99504.31;;;26.87;86.60
8069;BME280;4077;43.702;24.896;2023-06-19T09:32:17;99509.28;;;27.41;82.58
8069;BME280;4077;43.702;24.896;2023-06-19T09:34:43;99503.84;;;27.74;78.66
8069;BME280;4077;43.702;24.896;2023-06-19T09:37:09;99515.22;;;28.77;74.03
8069;BME280;4077;43.702;24.896;2023-06-19T09:39:37;99536.56;;;29.85;70.54
8069;BME280;4077;43.702;24.896;2023-06-19T09:42:03;99536.19;;;30.93;64.22
8069;BME280;4077;43.702;24.896;2023-06-19T09:44:31;99543.91;;;31.94;61.16
8069;BME280;4077;43.702;24.896;2023-06-19T09:47:04;99550.06;;;32.29;57.39
8069;BME280;4077;43.702;24.896;2023-06-19T09:49:34;99552.69;;;32.98;55.40
8069;BME280;4077;43.702;24.896;2023-06-19T09:52:01;99550.09;;;33.19;54.29
8069;BME280;4077;43.702;24.896;2023-06-19T09:54:28;99530.97;;;32.23;54.79
8069;BME280;4077;43.702;24.896;2023-06-19T09:56:55;99524.94;;;30.51;55.90
8069;BME280;4077;43.702;24.896;2023-06-19T09:59:23;99525.50;;;29.91;59.04
8069;BME280;4077;43.702;24.896;2023-06-19T10:01:49;99509.91;;;29.33;62.91
8069;BME280;4077;43.702;24.896;2023-06-19T10:04:15;99509.00;;;29.47;65.76
8069;BME280;4077;43.702;24.896;2023-06-19T10:06:45;99506.63;;;29.42;64.92
8069;BME280;4077;43.702;24.896;2023-06-19T10:09:13;99501.69;;;29.36;66.93
8069;BME280;4077;43.702;24.896;2023-06-19T10:11:50;99497.44;;;29.06;64.64
8069;BME280;4077;43.702;24.896;2023-06-19T10:14:22;99490.09;;;28.69;64.92
8069;BME280;4077;43.702;24.896;2023-06-19T10:16:48;99483.66;;;28.58;65.24
8069;BME280;4077;43.702;24.896;2023-06-19T10:19:20;99485.44;;;28.72;64.76
8069;BME280;4077;43.702;24.896;2023-06-19T10:21:51;99481.09;;;28.57;63.60
8069;BME280;4077;43.702;24.896;2023-06-19T10:24:18;99482.56;;;28.89;66.36
8069;BME280;4077;43.702;24.896;2023-06-19T10:26:56;99478.69;;;29.22;64.08
8069;BME280;4077;43.702;24.896;2023-06-19T10:29:22;99487.00;;;29.30;64.39
8069;BME280;4077;43.702;24.896;2023-06-19T10:31:48;99452.38;;;29.05;62.41
8069;BME280;4077;43.702;24.896;2023-06-19T10:34:14;99477.59;;;29.12;63.44
8069;BME280;4077;43.702;24.896;2023-06-19T10:36:40;99465.84;;;28.87;65.13
8069;BME280;4077;43.702;24.896;2023-06-19T10:39:05;99463.97;;;28.75;60.93
8069;BME280;4077;43.702;24.896;2023-06-19T10:41:32;99453.06;;;28.80;60.54
8069;BME280;4077;43.702;24.896;2023-06-19T10:43:59;99448.19;;;28.86;61.99
8069;BME280;4077;43.702;24.896;2023-06-19T10:46:30;99452.53;;;29.29;58.37
8069;BME280;4077;43.702;24.896;2023-06-19T10:48:56;99453.19;;;29.32;59.54
8069;BME280;4077;43.702;24.896;2023-06-19T10:51:27;99466.41;;;29.74;58.35
8069;BME280;4077;43.702;24.896;2023-06-19T10:53:56;99479.19;;;29.81;56.48
8069;BME280;4077;43.702;24.896;2023-06-19T10:56:23;99452.88;;;29.51;57.41
8069;BME280;4077;43.702;24.896;2023-06-19T10:58:59;99462.50;;;29.12;59.97
8069;BME280;4077;43.702;24.896;2023-06-19T11:01:41;99432.25;;;28.45;62.30
8069;BME280;4077;43.702;24.896;2023-06-19T11:04:08;99440.47;;;27.84;65.27
8069;BME280;4077;43.702;24.896;2023-06-19T11:06:34;99431.56;;;27.99;69.82
8069;BME280;4077;43.702;24.896;2023-06-19T11:09:00;99443.56;;;28.34;68.20
8069;BME280;4077;43.702;24.896;2023-06-19T11:11:37;99452.44;;;28.62;68.53
8069;BME280;4077;43.702;24.896;2023-06-19T11:14:03;99448.19;;;28.31;68.82
8069;BME280;4077;43.702;24.896;2023-06-19T11:16:29;99448.94;;;28.33;66.59
8069;BME280;4077;43.702;24.896;2023-06-19T11:18:58;99444.31;;;28.37;64.66
8069;BME280;4077;43.702;24.896;2023-06-19T11:21:34;99442.03;;;28.30;65.28
8069;BME280;4077;43.702;24.896;2023-06-19T11:24:02;99435.78;;;28.31;64.74
8069;BME280;4077;43.702;24.896;2023-06-19T11:26:28;99433.00;;;28.47;60.45
8069;BME280;4077;43.702;24.896;2023-06-19T11:28:53;99426.28;;;28.42;62.73
8069;BME280;4077;43.702;24.896;2023-06-19T11:31:26;99447.41;;;28.15;60.96
8069;BME280;4077;43.702;24.896;2023-06-19T11:33:57;99440.56;;;27.96;64.63
8069;BME280;4077;43.702;24.896;2023-06-19T11:36:23;99436.22;;;27.81;63.31
8069;BME280;4077;43.702;24.896;2023-06-19T11:38:51;99446.38;;;28.17;64.25
8069;BME280;4077;43.702;24.896;2023-06-19T11:41:25;99446.38;;;28.46;64.21
8069;BME280;4077;43.702;24.896;2023-06-19T11:43:58;99437.81;;;28.69;64.14
8069;BME280;4077;43.702;24.896;2023-06-19T11:46:28;99445.88;;;29.09;61.64
8069;BME280;4077;43.702;24.896;2023-06-19T11:48:55;99452.03;;;29.09;54.77
8069;BME280;4077;43.702;24.896;2023-06-19T11:51:21;99444.00;;;29.11;53.32
8069;BME280;4077;43.702;24.896;2023-06-19T11:53:46;99430.78;;;29.09;54.40
8069;BME280;4077;43.702;24.896;2023-06-19T11:56:12;99444.97;;;28.96;55.17
8069;BME280;4077;43.702;24.896;2023-06-19T11:58:37;99438.78;;;28.54;57.16
8069;BME280;4077;43.702;24.896;2023-06-19T12:01:03;99374.97;;;28.13;56.84
8069;BME280;4077;43.702;24.896;2023-06-19T12:03:28;99411.22;;;28.42;58.70
8069;BME280;4077;43.702;24.896;2023-06-19T12:05:53;99409.72;;;28.65;56.63
8069;BME280;4077;43.702;24.896;2023-06-19T12:08:19;99417.06;;;28.88;53.89
8069;BME280;4077;43.702;24.896;2023-06-19T12:10:44;99402.38;;;28.83;55.77
8069;BME280;4077;43.702;24.896;2023-06-19T12:13:10;99415.66;;;28.56;56.33
8069;BME280;4077;43.702;24.896;2023-06-19T12:15:35;99409.03;;;28.49;56.83
8069;BME280;4077;43.702;24.896;2023-06-19T12:18:00;99413.34;;;28.64;56.13
8069;BME280;4077;43.702;24.896;2023-06-19T12:20:26;99411.50;;;28.79;56.89
8069;BME280;4077;43.702;24.896;2023-06-19T12:22:51;99404.53;;;28.91;54.27
8069;BME280;4077;43.702;24.896;2023-06-19T12:25:17;99409.50;;;28.97;54.67
8069;BME280;4077;43.702;24.896;2023-06-19T12:27:42;99411.19;;;28.98;52.93
8069;BME280;4077;43.702;24.896;2023-06-19T12:30:08;99407.34;;;29.02;53.35
8069;BME280;4077;43.702;24.896;2023-06-19T12:32:34;99405.88;;;28.98;54.02
8069;BME280;4077;43.702;24.896;2023-06-19T12:34:59;99409.06;;;29.03;52.51
8069;BME280;4077;43.702;24.896;2023-06-19T12:37:25;99384.16;;;28.91;52.45
8069;BME280;4077;43.702;24.896;2023-06-19T12:39:50;99399.09;;;29.06;54.63
8069;BME280;4077;43.702;24.896;2023-06-19T12:42:16;99402.69;;;28.78;53.88
8069;BME280;4077;43.702;24.896;2023-06-19T12:44:42;99406.50;;;28.60;53.86
8069;BME280;4077;43.702;24.896;2023-06-19T12:47:09;99391.59;;;27.88;53.61
8069;BME280;4077;43.702;24.896;2023-06-19T12:49:35;99379.97;;;27.60;54.11
8069;BME280;4077;43.702;24.896;2023-06-19T12:52:00;99388.66;;;27.48;55.35
8069;BME280;4077;43.702;24.896;2023-06-19T12:54:26;99396.09;;;27.71;54.43
8069;BME280;4077;43.702;24.896;2023-06-19T12:56:51;99381.81;;;27.74;54.10
8069;BME280;4077;43.702;24.896;2023-06-19T12:59:17;99373.56;;;27.78;54.33
8069;BME280;4077;43.702;24.896;2023-06-19T13:01:43;99381.91;;;28.01;53.51
8069;BME280;4077;43.702;24.896;2023-06-19T13:04:09;99384.19;;;28.21;52.48
8069;BME280;4077;43.702;24.896;2023-06-19T13:06:39;99381.22;;;28.26;52.49